createdAt,value
2022-11-22T00:00:35.595Z,1.42
2022-11-22T00:03:37.321Z,2.47
2022-11-22T00:06:39.049Z,2.17
2022-11-22T00:09:40.766Z,2.17
2022-11-22T00:12:42.709Z,1.75
2022-11-22T00:15:45.273Z,1.23
2022-11-22T00:18:47.068Z,2.95
2022-11-22T00:21:48.789Z,1.23
2022-11-22T00:24:52.334Z,1.55
2022-11-22T00:27:54.439Z,2.53
2022-11-22T00:30:56.167Z,1.25
2022-11-22T00:33:57.876Z,1.52
2022-11-22T00:36:59.603Z,2.72
2022-11-22T00:40:02.208Z,2.35
2022-11-22T00:43:03.938Z,2.85
2022-11-22T00:46:05.696Z,1.92
2022-11-22T00:49:07.452Z,1.35
2022-11-22T00:52:09.156Z,1.95
2022-11-22T00:55:10.891Z,1.33
2022-11-22T00:58:12.597Z,3.40
2022-11-22T01:01:14.352Z,1.90
2022-11-22T01:04:16.150Z,2.13
2022-11-22T01:07:17.922Z,1.35
2022-11-22T01:10:19.749Z,1.65
2022-11-22T01:13:21.477Z,1.83
2022-11-22T01:16:23.230Z,2.10
2022-11-22T01:19:24.973Z,1.95
2022-11-22T01:22:26.713Z,2.78
2022-11-22T01:25:28.452Z,1.30
2022-11-22T01:28:30.185Z,1.80
2022-11-22T01:31:32.007Z,1.50
2022-11-22T01:34:33.809Z,3.65
2022-11-22T01:37:36.033Z,1.63
2022-11-22T01:40:38.168Z,1.77
2022-11-22T01:43:40.019Z,8.40
2022-11-22T01:46:42.142Z,1.23
2022-11-22T01:49:55.356Z,1.40
2022-11-22T01:53:02.408Z,1.83
2022-11-22T01:56:09.519Z,1.05
2022-11-22T01:59:16.409Z,1.30
2022-11-22T02:02:18.362Z,2.25
2022-11-22T02:05:23.974Z,1.38
2022-11-22T02:08:30.715Z,1.85
2022-11-22T02:11:34.873Z,1.07
2022-11-22T02:14:38.261Z,1.48
2022-11-22T02:17:39.971Z,1.50
2022-11-22T02:20:42.001Z,1.70
2022-11-22T02:23:56.796Z,1.17
2022-11-22T02:26:58.893Z,1.55
2022-11-22T02:30:00.641Z,2.15
2022-11-22T02:33:02.549Z,1.30
2022-11-22T02:36:04.614Z,1.35
2022-11-22T02:39:09.315Z,2.25
2022-11-22T02:42:12.036Z,1.42
2022-11-22T02:45:14.262Z,2.22
2022-11-22T02:48:18.076Z,1.02
2022-11-22T02:51:20.364Z,1.65
2022-11-22T02:54:22.473Z,1.27
2022-11-22T02:57:24.191Z,1.55
2022-11-22T03:00:26.126Z,1.38
2022-11-22T03:03:27.877Z,1.35
2022-11-22T03:06:29.768Z,2.28
2022-11-22T03:09:32.291Z,1.20
2022-11-22T03:12:34.222Z,1.45
2022-11-22T03:15:35.931Z,1.20
2022-11-22T03:18:37.950Z,1.38
2022-11-22T03:21:40.765Z,3.13
2022-11-22T03:24:42.472Z,2.15
2022-11-22T03:27:44.141Z,1.13
2022-11-22T03:30:45.898Z,1.02
2022-11-22T03:33:47.715Z,1.90
2022-11-22T03:36:49.607Z,1.05
2022-11-22T03:39:51.320Z,3.33
2022-11-22T03:42:53.011Z,3.08
2022-11-22T03:45:54.704Z,1.23
2022-11-22T03:48:56.438Z,1.70
2022-11-22T03:51:58.199Z,0.82
2022-11-22T03:54:59.926Z,1.83
2022-11-22T03:58:01.794Z,1.20
2022-11-22T04:01:03.862Z,3.15
2022-11-22T04:04:05.768Z,2.30
2022-11-22T04:07:07.531Z,1.60
2022-11-22T04:10:09.634Z,1.00
2022-11-22T04:13:11.347Z,1.90
2022-11-22T04:16:13.122Z,1.42
2022-11-22T04:19:14.972Z,1.13
2022-11-22T04:22:16.629Z,2.20
2022-11-22T04:25:18.327Z,2.28
2022-11-22T04:28:40.440Z,1.40
2022-11-22T04:32:03.723Z,1.30
2022-11-22T04:35:05.872Z,1.58
2022-11-22T04:38:11.355Z,1.05
2022-11-22T04:41:13.055Z,1.90
2022-11-22T04:44:33.268Z,2.15
2022-11-22T04:47:54.002Z,2.22
2022-11-22T04:51:19.740Z,3.40
2022-11-22T04:54:21.430Z,2.38
2022-11-22T04:57:23.170Z,1.10
2022-11-22T05:00:27.369Z,1.63
2022-11-22T05:03:29.194Z,1.42
2022-11-22T05:06:30.911Z,2.15
2022-11-22T05:09:32.765Z,2.30
2022-11-22T05:12:34.563Z,1.73
2022-11-22T05:15:36.285Z,0.90
2022-11-22T05:18:38.164Z,7.88
2022-11-22T05:21:39.900Z,1.75
2022-11-22T05:24:41.609Z,1.73
2022-11-22T05:27:43.357Z,0.98
2022-11-22T05:30:45.126Z,2.90
2022-11-22T05:33:46.817Z,1.10
2022-11-22T05:36:48.531Z,3.22
2022-11-22T05:39:50.313Z,1.17
2022-11-22T05:42:52.462Z,1.58
2022-11-22T05:45:54.227Z,3.63
2022-11-22T05:48:57.206Z,2.55
2022-11-22T05:51:59.332Z,1.40
2022-11-22T05:55:01.314Z,1.70
2022-11-22T05:58:03.004Z,2.53
2022-11-22T06:01:19.346Z,1.90
2022-11-22T06:04:21.117Z,5.90
2022-11-22T06:07:23.007Z,3.92
2022-11-22T06:10:24.767Z,4.28
2022-11-22T06:13:26.570Z,6.07
2022-11-22T06:16:28.438Z,4.15
2022-11-22T06:19:30.440Z,3.58
2022-11-22T06:22:32.305Z,3.10
2022-11-22T06:25:34.142Z,5.25
2022-11-22T06:28:37.397Z,7.93
2022-11-22T06:31:39.090Z,8.45
2022-11-22T06:34:40.782Z,5.88
2022-11-22T06:37:42.558Z,5.28
2022-11-22T06:40:44.306Z,6.20
2022-11-22T06:43:49.376Z,2.88
2022-11-22T06:46:51.417Z,5.05
2022-11-22T06:49:53.188Z,5.00
2022-11-22T06:52:54.969Z,5.15
2022-11-22T06:56:13.967Z,6.72
2022-11-22T06:59:15.706Z,5.35
2022-11-22T07:02:17.423Z,3.83
2022-11-22T07:05:25.620Z,5.63
2022-11-22T07:08:28.241Z,6.15
2022-11-22T07:11:31.592Z,2.20
2022-11-22T07:14:33.317Z,3.88
2022-11-22T07:17:35.691Z,4.35
2022-11-22T07:20:37.489Z,4.00
2022-11-22T07:23:40.432Z,5.35
2022-11-22T07:26:42.136Z,5.55
2022-11-22T07:29:43.906Z,11.05
2022-11-22T07:32:48.951Z,5.70
2022-11-22T07:35:50.690Z,5.28
2022-11-22T07:38:52.526Z,13.50
2022-11-22T07:41:54.232Z,5.18
2022-11-22T07:44:55.986Z,7.32
2022-11-22T07:48:00.406Z,13.98
2022-11-22T07:51:07.035Z,20.95
2022-11-22T07:54:12.499Z,12.13
2022-11-22T07:57:14.195Z,10.77
2022-11-22T08:00:16.215Z,7.80
2022-11-22T08:03:19.200Z,7.03
2022-11-22T08:06:23.320Z,8.93
2022-11-22T08:09:25.031Z,10.70
2022-11-22T08:12:26.773Z,11.65
2022-11-22T08:15:28.545Z,11.02
2022-11-22T08:18:30.483Z,10.80
2022-11-22T08:21:32.198Z,9.13
2022-11-22T08:24:34.013Z,7.57
2022-11-22T08:27:35.713Z,6.97
2022-11-22T08:30:37.429Z,5.05
2022-11-22T08:33:39.970Z,6.30
2022-11-22T08:36:41.680Z,6.38
2022-11-22T08:39:43.388Z,11.80
2022-11-22T08:42:45.100Z,8.35
2022-11-22T08:45:53.002Z,10.27
2022-11-22T08:48:54.731Z,10.55
2022-11-22T08:51:56.418Z,6.38
2022-11-22T08:54:58.115Z,6.03
2022-11-22T08:58:00.375Z,8.13
2022-11-22T09:01:13.802Z,5.18
2022-11-22T09:04:15.606Z,6.43
2022-11-22T09:10:39.062Z,5.18
2022-11-22T09:13:41.649Z,6.80
2022-11-22T09:16:43.400Z,5.28
2022-11-22T09:19:45.316Z,7.22
2022-11-22T09:22:47.052Z,7.25
2022-11-22T09:25:55.890Z,11.20
2022-11-22T09:28:57.660Z,6.38
2022-11-22T09:31:59.416Z,7.43
2022-11-22T09:35:01.158Z,5.95
2022-11-22T09:38:02.872Z,2.90
2022-11-22T09:41:16.621Z,9.95
2022-11-22T09:44:55.469Z,5.70
2022-11-22T09:48:42.385Z,4.15
2022-11-22T09:51:51.014Z,8.63
2022-11-22T09:55:24.463Z,5.85
2022-11-22T09:58:43.600Z,4.85
2022-11-22T10:01:58.745Z,5.97
2022-11-22T10:05:15.966Z,7.60
2022-11-22T10:08:48.270Z,6.00
2022-11-22T10:11:58.475Z,6.22
2022-11-22T10:15:31.452Z,6.80
2022-11-22T10:18:43.313Z,6.20
2022-11-22T10:21:47.964Z,3.65
2022-11-22T10:24:49.762Z,4.03
2022-11-22T10:28:00.625Z,4.32
2022-11-22T10:31:17.561Z,6.20
2022-11-22T10:34:19.249Z,8.77
2022-11-22T10:37:45.409Z,9.48
2022-11-22T10:41:05.808Z,4.00
2022-11-22T10:44:22.568Z,8.63
2022-11-22T10:47:56.211Z,5.60
2022-11-22T10:51:20.570Z,7.35
2022-11-22T10:54:41.433Z,8.90
2022-11-22T10:58:27.300Z,4.53
2022-11-22T11:02:00.293Z,6.28
2022-11-22T11:05:05.965Z,3.53
2022-11-22T11:08:39.319Z,5.70
2022-11-22T11:11:38.585Z,5.00
2022-11-22T11:14:46.066Z,8.90
2022-11-22T11:17:54.753Z,8.70
2022-11-22T11:20:56.607Z,8.75
2022-11-22T11:23:58.306Z,6.68
2022-11-22T11:27:00.849Z,4.00
2022-11-22T11:30:04.797Z,2.75
2022-11-22T11:33:30.784Z,4.60
2022-11-22T11:36:32.699Z,5.20
2022-11-22T11:39:36.850Z,4.43
2022-11-22T11:42:40.173Z,4.63
2022-11-22T11:45:41.997Z,6.25
2022-11-22T11:48:44.244Z,4.45
2022-11-22T11:52:00.251Z,3.97
2022-11-22T11:55:02.643Z,4.30
2022-11-22T11:58:21.040Z,5.00
2022-11-22T12:01:25.015Z,3.90
2022-11-22T12:04:31.606Z,7.80
2022-11-22T12:07:36.672Z,4.82
2022-11-22T12:10:49.715Z,2.95
2022-11-22T12:14:19.095Z,3.90
2022-11-22T12:17:27.521Z,4.17
2022-11-22T12:20:51.159Z,2.47
2022-11-22T12:24:43.106Z,3.53
2022-11-22T12:27:38.861Z,3.42
2022-11-22T12:30:42.982Z,3.03
2022-11-22T12:33:50.557Z,5.43
2022-11-22T12:39:56.774Z,3.95
2022-11-22T12:43:10.380Z,6.78
2022-11-22T12:46:18.129Z,3.67
2022-11-22T12:49:42.821Z,6.65
2022-11-22T12:53:07.431Z,3.67
2022-11-22T12:56:22.510Z,5.40
2022-11-22T12:59:44.041Z,4.05
2022-11-22T13:02:58.952Z,7.97
2022-11-22T13:06:05.036Z,8.25
2022-11-22T13:09:11.929Z,9.57
2022-11-22T13:12:17.405Z,9.38
2022-11-22T13:15:27.758Z,7.53
2022-11-22T13:18:36.921Z,8.60
2022-11-22T13:21:41.433Z,10.32
2022-11-22T13:25:10.293Z,10.10
2022-11-22T13:28:16.057Z,7.78
2022-11-22T13:31:19.516Z,7.63
2022-11-22T13:34:26.299Z,10.90
2022-11-22T13:37:34.755Z,7.10
2022-11-22T13:40:46.113Z,7.70
2022-11-22T13:43:55.851Z,5.85
2022-11-22T13:47:03.235Z,6.47
2022-11-22T13:50:41.988Z,5.18
2022-11-22T13:53:46.321Z,6.55
2022-11-22T13:56:58.382Z,5.45
2022-11-22T14:00:14.963Z,6.70
2022-11-22T14:03:16.635Z,6.70
2022-11-22T14:06:30.381Z,4.13
2022-11-22T14:09:45.425Z,3.72
2022-11-22T14:13:19.271Z,5.72
2022-11-22T14:16:29.956Z,3.33
2022-11-22T14:19:50.902Z,5.80
2022-11-22T14:23:27.022Z,6.85
2022-11-22T14:26:35.016Z,6.10
2022-11-22T14:29:55.278Z,5.80
2022-11-22T14:33:06.370Z,7.50
2022-11-22T14:36:08.155Z,4.00
2022-11-22T14:40:02.165Z,3.33
2022-11-22T14:43:29.681Z,3.78
2022-11-22T14:46:54.543Z,2.60
2022-11-22T14:49:57.603Z,2.60
2022-11-22T14:53:32.494Z,5.32
2022-11-22T14:56:37.727Z,3.30
2022-11-22T15:00:08.697Z,4.70
2022-11-22T15:03:48.246Z,4.00
2022-11-22T15:09:16.587Z,4.80
2022-11-22T15:11:10.248Z,6.88
2022-11-22T15:14:50.736Z,4.22
2022-11-22T15:59:27.562Z,6.63
2022-11-22T16:02:31.770Z,9.60
2022-11-22T16:06:07.736Z,11.50
2022-11-22T16:09:03.480Z,6.47
2022-11-22T16:12:26.316Z,5.28
2022-11-22T16:15:30.273Z,5.60
2022-11-22T16:18:32.391Z,4.15
2022-11-22T16:21:34.216Z,3.38
2022-11-22T16:24:35.995Z,4.72
2022-11-22T16:27:46.546Z,10.02
2022-11-22T16:30:48.543Z,5.43
2022-11-22T16:33:51.725Z,5.45
2022-11-22T16:36:53.499Z,5.85
2022-11-22T16:39:55.702Z,4.57
2022-11-22T16:42:57.541Z,3.00
2022-11-22T16:45:59.312Z,6.30
2022-11-22T16:49:01.139Z,6.63
2022-11-22T16:52:02.865Z,4.85
2022-11-22T16:55:05.231Z,6.75
2022-11-22T16:58:21.840Z,7.00
2022-11-22T17:01:26.450Z,5.13
2022-11-22T17:04:28.454Z,5.28
2022-11-22T17:07:30.445Z,3.30
2022-11-22T17:10:32.206Z,5.03
2022-11-22T17:13:33.916Z,10.13
2022-11-22T17:16:35.620Z,13.05
2022-11-22T17:19:52.679Z,6.35
2022-11-22T17:25:57.198Z,9.80
2022-11-22T17:28:59.095Z,4.45
2022-11-22T17:32:00.840Z,4.75
2022-11-22T17:35:02.637Z,4.15
2022-11-22T17:38:05.452Z,5.55
2022-11-22T17:41:07.152Z,4.85
2022-11-22T17:44:15.210Z,3.80
2022-11-22T17:47:16.952Z,4.28
2022-11-22T17:50:18.736Z,4.28
2022-11-22T17:53:20.470Z,3.75
2022-11-22T17:56:22.198Z,2.45
2022-11-22T17:59:23.940Z,3.65
2022-11-22T18:02:25.771Z,3.03
2022-11-22T18:05:27.497Z,4.32
2022-11-22T18:08:29.539Z,3.47
2022-11-22T18:11:31.376Z,3.85
2022-11-22T18:14:34.518Z,4.13
2022-11-22T18:17:36.303Z,7.15
2022-11-22T18:20:38.034Z,8.48
2022-11-22T18:23:40.150Z,12.38
2022-11-22T18:26:42.303Z,10.45
2022-11-22T18:29:44.447Z,8.27
2022-11-22T18:32:46.168Z,7.75
2022-11-22T18:35:56.185Z,6.25
2022-11-22T18:38:58.340Z,5.95
2022-11-22T18:42:00.156Z,5.82
2022-11-22T18:45:02.000Z,6.10
2022-11-22T18:48:04.549Z,7.25
2022-11-22T18:51:08.530Z,4.70
2022-11-22T18:54:10.637Z,7.28
2022-11-22T18:57:12.469Z,7.20
2022-11-22T19:00:14.686Z,5.43
2022-11-22T19:03:16.422Z,6.22
2022-11-22T19:06:19.388Z,4.72
2022-11-22T19:09:21.152Z,5.38
2022-11-22T19:12:22.942Z,4.93
2022-11-22T19:15:24.650Z,6.35
2022-11-22T19:18:27.585Z,3.80
2022-11-22T19:21:31.359Z,6.45
2022-11-22T19:24:33.741Z,5.07
2022-11-22T19:27:36.245Z,3.80
2022-11-22T19:30:42.797Z,4.35
2022-11-22T19:33:46.211Z,5.32
2022-11-22T19:36:48.240Z,4.20
2022-11-22T19:39:50.019Z,8.02
2022-11-22T19:42:51.744Z,4.75
2022-11-22T19:45:53.503Z,4.22
2022-11-22T19:48:57.305Z,4.68
2022-11-22T19:51:59.046Z,3.88
2022-11-22T19:55:00.788Z,4.93
2022-11-22T19:58:02.561Z,3.63
2022-11-22T20:01:09.401Z,3.33
2022-11-22T20:04:13.193Z,6.50
2022-11-22T20:07:14.996Z,3.33
2022-11-22T20:10:16.888Z,7.60
2022-11-22T20:13:18.644Z,3.60
2022-11-22T20:16:26.039Z,4.32
2022-11-22T20:19:33.872Z,2.67
2022-11-22T20:22:36.786Z,3.60
2022-11-22T20:25:41.520Z,2.60
2022-11-22T20:28:45.384Z,3.28
2022-11-22T20:31:47.929Z,4.00
2022-11-22T20:34:49.654Z,3.08
2022-11-22T20:37:51.420Z,6.55
2022-11-22T20:40:56.719Z,2.90
2022-11-22T20:43:58.469Z,3.55
2022-11-22T20:47:01.106Z,2.53
2022-11-22T20:50:02.967Z,3.90
2022-11-22T20:53:04.744Z,2.30
2022-11-22T20:56:06.739Z,3.92
2022-11-22T20:59:08.635Z,3.22
2022-11-22T21:02:11.057Z,3.30
2022-11-22T21:05:12.945Z,5.55
2022-11-22T21:08:14.723Z,6.30
2022-11-22T21:11:28.328Z,3.20
2022-11-22T21:14:30.259Z,2.80
2022-11-22T21:17:55.633Z,4.18
2022-11-22T21:20:54.042Z,3.60
2022-11-22T21:23:57.093Z,3.28
2022-11-22T21:26:58.916Z,3.42
2022-11-22T21:30:00.755Z,4.28
2022-11-22T21:33:02.497Z,3.05
2022-11-22T21:36:06.438Z,2.75
2022-11-22T21:39:08.173Z,2.83
2022-11-22T21:42:10.232Z,4.38
2022-11-22T21:45:12.058Z,4.32
2022-11-22T21:48:13.947Z,7.57
2022-11-22T21:51:15.710Z,3.72
2022-11-22T21:54:17.620Z,2.03
2022-11-22T21:57:19.342Z,3.78
2022-11-22T22:00:21.197Z,3.17
2022-11-22T22:03:23.107Z,3.10
2022-11-22T22:06:25.251Z,2.05
2022-11-22T22:09:26.976Z,2.83
2022-11-22T22:12:28.721Z,2.60
2022-11-22T22:15:30.560Z,1.73
2022-11-22T22:18:37.369Z,4.70
2022-11-22T22:21:39.107Z,2.08
2022-11-22T22:24:40.944Z,2.47
2022-11-22T22:27:43.051Z,3.03
2022-11-22T22:30:44.809Z,2.55
2022-11-22T22:33:46.649Z,3.40
2022-11-22T22:36:48.358Z,2.25
2022-11-22T22:39:51.800Z,3.45
2022-11-22T22:42:53.632Z,3.20
2022-11-22T22:45:55.373Z,3.05
2022-11-22T22:48:57.158Z,3.72
2022-11-22T22:51:58.970Z,1.90
2022-11-22T22:55:00.697Z,3.50
2022-11-22T22:58:03.435Z,2.55
2022-11-22T23:01:09.343Z,4.00
2022-11-22T23:04:11.237Z,2.67
2022-11-22T23:07:12.994Z,3.00
2022-11-22T23:10:15.528Z,3.15
2022-11-22T23:13:17.233Z,2.42
2022-11-22T23:16:19.044Z,3.13
2022-11-22T23:19:20.854Z,2.17
2022-11-22T23:22:25.931Z,2.60
2022-11-22T23:25:27.895Z,3.47
2022-11-22T23:28:30.581Z,2.83
2022-11-22T23:31:32.619Z,2.10
2022-11-22T23:34:34.372Z,2.97
2022-11-22T23:37:36.110Z,2.08
2022-11-22T23:40:37.869Z,2.28
2022-11-22T23:43:41.191Z,3.58
2022-11-22T23:46:42.890Z,2.78
2022-11-22T23:49:44.666Z,2.25
2022-11-22T23:52:46.433Z,2.97
2022-11-22T23:55:48.154Z,1.92
2022-11-22T23:58:50.996Z,2.35
